sensor_id;sensor_type;location;lat;lon;timestamp;temperature;humidity
9925;DHT22;5001;51.674;7.868;2024-02-15T00:00:00;11.70;99.90
9925;DHT22;5001;51.674;7.868;2024-02-15T00:02:29;11.80;85.30
9925;DHT22;5001;51.674;7.868;2024-02-15T00:04:57;11.80;55.40
9925;DHT22;5001;51.674;7.868;2024-02-15T00:07:24;11.80;51.10
9925;DHT22;5001;51.674;7.868;2024-02-15T00:09:51;11.80;37.50
9925;DHT22;5001;51.674;7.868;2024-02-15T00:12:18;11.80;35.20
9925;DHT22;5001;51.674;7.868;2024-02-15T00:14:45;11.80;40.70
9925;DHT22;5001;51.674;7.868;2024-02-15T00:17:12;11.80;57.60
9925;DHT22;5001;51.674;7.868;2024-02-15T00:19:39;11.80;83.50
9925;DHT22;5001;51.674;7.868;2024-02-15T00:22:09;11.70;99.90
9925;DHT22;5001;51.674;7.868;2024-02-15T00:24:37;11.70;99.90
9925;DHT22;5001;51.674;7.868;2024-02-15T00:27:05;11.80;99.90
9925;DHT22;5001;51.674;7.868;2024-02-15T00:29:32;11.70;99.90
9925;DHT22;5001;51.674;7.868;2024-02-15T00:32:01;11.70;99.90
9925;DHT22;5001;51.674;7.868;2024-02-15T00:34:31;11.70;99.90
9925;DHT22;5001;51.674;7.868;2024-02-15T00:36:58;11.70;99.90
9925;DHT22;5001;51.674;7.868;2024-02-15T00:39:25;11.70;99.90
9925;DHT22;5001;51.674;7.868;2024-02-15T00:41:52;11.70;99.90
9925;DHT22;5001;51.674;7.868;2024-02-15T00:44:19;11.70;99.90
9925;DHT22;5001;51.674;7.868;2024-02-15T00:46:47;11.70;99.90
9925;DHT22;5001;51.674;7.868;2024-02-15T00:49:15;11.70;99.90
9925;DHT22;5001;51.674;7.868;2024-02-15T00:51:42;11.70;99.90
9925;DHT22;5001;51.674;7.868;2024-02-15T00:54:09;11.60;99.90
9925;DHT22;5001;51.674;7.868;2024-02-15T00:56:36;11.60;99.90
9925;DHT22;5001;51.674;7.868;2024-02-15T00:59:03;11.60;99.90
9925;DHT22;5001;51.674;7.868;2024-02-15T01:01:32;11.60;99.90
9925;DHT22;5001;51.674;7.868;2024-02-15T01:03:59;11.60;99.90
9925;DHT22;5001;51.674;7.868;2024-02-15T01:06:26;11.60;99.90
9925;DHT22;5001;51.674;7.868;2024-02-15T01:08:53;11.60;99.90
9925;DHT22;5001;51.674;7.868;2024-02-15T01:11:20;11.60;99.90
9925;DHT22;5001;51.674;7.868;2024-02-15T01:13:47;11.60;99.90
9925;DHT22;5001;51.674;7.868;2024-02-15T01:16:16;11.60;99.90
9925;DHT22;5001;51.674;7.868;2024-02-15T01:18:43;11.60;99.90
9925;DHT22;5001;51.674;7.868;2024-02-15T01:21:10;11.60;99.90
9925;DHT22;5001;51.674;7.868;2024-02-15T01:23:38;11.60;99.90
9925;DHT22;5001;51.674;7.868;2024-02-15T01:26:05;11.60;99.90
9925;DHT22;5001;51.674;7.868;2024-02-15T01:28:32;11.60;99.90
9925;DHT22;5001;51.674;7.868;2024-02-15T01:30:59;11.60;99.90
9925;DHT22;5001;51.674;7.868;2024-02-15T01:33:26;11.60;99.90
9925;DHT22;5001;51.674;7.868;2024-02-15T01:35:54;11.60;99.90
9925;DHT22;5001;51.674;7.868;2024-02-15T01:38:21;11.60;99.90
9925;DHT22;5001;51.674;7.868;2024-02-15T01:40:48;11.60;99.90
9925;DHT22;5001;51.674;7.868;2024-02-15T01:43:15;11.60;99.90
9925;DHT22;5001;51.674;7.868;2024-02-15T01:45:42;11.60;99.90
9925;DHT22;5001;51.674;7.868;2024-02-15T01:48:10;11.60;99.90
9925;DHT22;5001;51.674;7.868;2024-02-15T01:50:38;11.60;99.90
9925;DHT22;5001;51.674;7.868;2024-02-15T01:53:07;11.60;99.90
9925;DHT22;5001;51.674;7.868;2024-02-15T01:55:35;11.60;99.90
9925;DHT22;5001;51.674;7.868;2024-02-15T01:58:03;11.60;99.90
9925;DHT22;5001;51.674;7.868;2024-02-15T02:00:31;11.60;99.90
9925;DHT22;5001;51.674;7.868;2024-02-15T02:02:58;11.60;99.90
9925;DHT22;5001;51.674;7.868;2024-02-15T02:05:30;11.70;99.90
9925;DHT22;5001;51.674;7.868;2024-02-15T02:07:58;11.70;99.90
9925;DHT22;5001;51.674;7.868;2024-02-15T02:10:28;11.70;99.90
9925;DHT22;5001;51.674;7.868;2024-02-15T02:13:02;11.60;99.90
9925;DHT22;5001;51.674;7.868;2024-02-15T02:15:31;11.60;99.90
9925;DHT22;5001;51.674;7.868;2024-02-15T02:18:00;11.60;99.90
9925;DHT22;5001;51.674;7.868;2024-02-15T02:20:27;11.60;99.90
9925;DHT22;5001;51.674;7.868;2024-02-15T02:25:34;11.60;99.90
9925;DHT22;5001;51.674;7.868;2024-02-15T02:28:01;11.60;99.90
9925;DHT22;5001;51.674;7.868;2024-02-15T02:30:29;11.60;99.90
9925;DHT22;5001;51.674;7.868;2024-02-15T02:32:56;11.60;99.90
9925;DHT22;5001;51.674;7.868;2024-02-15T02:35:25;11.60;99.90
9925;DHT22;5001;51.674;7.868;2024-02-15T02:37:52;11.60;99.90
9925;DHT22;5001;51.674;7.868;2024-02-15T02:40:22;11.60;99.90
9925;DHT22;5001;51.674;7.868;2024-02-15T02:42:53;11.60;99.90
9925;DHT22;5001;51.674;7.868;2024-02-15T02:45:22;11.60;99.90
9925;DHT22;5001;51.674;7.868;2024-02-15T02:47:54;11.70;99.90
9925;DHT22;5001;51.674;7.868;2024-02-15T02:50:22;11.70;99.90
9925;DHT22;5001;51.674;7.868;2024-02-15T02:52:50;11.70;99.90
9925;DHT22;5001;51.674;7.868;2024-02-15T02:55:17;11.70;99.90
9925;DHT22;5001;51.674;7.868;2024-02-15T02:57:44;11.60;99.90
9925;DHT22;5001;51.674;7.868;2024-02-15T03:00:13;11.60;99.90
9925;DHT22;5001;51.674;7.868;2024-02-15T03:06:24;11.60;99.90
9925;DHT22;5001;51.674;7.868;2024-02-15T03:08:54;11.60;99.90
9925;DHT22;5001;51.674;7.868;2024-02-15T03:11:21;11.60;99.90
9925;DHT22;5001;51.674;7.868;2024-02-15T03:13:49;11.70;99.90
9925;DHT22;5001;51.674;7.868;2024-02-15T03:16:16;11.60;99.90
9925;DHT22;5001;51.674;7.868;2024-02-15T03:18:43;11.60;99.90
9925;DHT22;5001;51.674;7.868;2024-02-15T03:21:10;11.70;99.90
9925;DHT22;5001;51.674;7.868;2024-02-15T03:23:37;11.70;99.90
9925;DHT22;5001;51.674;7.868;2024-02-15T03:26:08;11.70;99.90
9925;DHT22;5001;51.674;7.868;2024-02-15T03:28:35;11.70;99.90
9925;DHT22;5001;51.674;7.868;2024-02-15T03:31:04;11.60;99.90
9925;DHT22;5001;51.674;7.868;2024-02-15T03:33:31;11.60;99.90
9925;DHT22;5001;51.674;7.868;2024-02-15T03:36:01;11.60;99.90
9925;DHT22;5001;51.674;7.868;2024-02-15T03:38:28;11.60;99.90
9925;DHT22;5001;51.674;7.868;2024-02-15T03:40:56;11.60;99.90
9925;DHT22;5001;51.674;7.868;2024-02-15T03:43:23;11.60;99.90
9925;DHT22;5001;51.674;7.868;2024-02-15T03:45:50;11.60;99.90
9925;DHT22;5001;51.674;7.868;2024-02-15T03:48:17;11.60;99.90
9925;DHT22;5001;51.674;7.868;2024-02-15T03:50:45;11.60;99.90
9925;DHT22;5001;51.674;7.868;2024-02-15T03:53:12;11.60;99.90
9925;DHT22;5001;51.674;7.868;2024-02-15T03:55:40;11.60;99.90
9925;DHT22;5001;51.674;7.868;2024-02-15T03:58:07;11.60;99.90
9925;DHT22;5001;51.674;7.868;2024-02-15T04:00:35;11.60;99.90
9925;DHT22;5001;51.674;7.868;2024-02-15T04:03:02;11.60;99.90
9925;DHT22;5001;51.674;7.868;2024-02-15T04:05:31;11.60;80.40
9925;DHT22;5001;51.674;7.868;2024-02-15T04:07:59;11.60;58.00
9925;DHT22;5001;51.674;7.868;2024-02-15T04:10:29;11.60;48.30
9925;DHT22;5001;51.674;7.868;2024-02-15T04:12:56;11.60;40.30
9925;DHT22;5001;51.674;7.868;2024-02-15T04:15:24;11.70;21.10
9925;DHT22;5001;51.674;7.868;2024-02-15T04:17:51;11.70;8.10
9925;DHT22;5001;51.674;7.868;2024-02-15T04:20:23;11.60;16.20
9925;DHT22;5001;51.674;7.868;2024-02-15T04:22:50;11.60;9.00
9925;DHT22;5001;51.674;7.868;2024-02-15T04:25:17;11.60;1.00
9925;DHT22;5001;51.674;7.868;2024-02-15T04:27:45;11.60;1.00
9925;DHT22;5001;51.674;7.868;2024-02-15T04:30:13;11.60;1.00
9925;DHT22;5001;51.674;7.868;2024-02-15T04:32:42;11.60;1.00
9925;DHT22;5001;51.674;7.868;2024-02-15T04:35:09;11.60;13.90
9925;DHT22;5001;51.674;7.868;2024-02-15T04:37:40;11.60;1.00
9925;DHT22;5001;51.674;7.868;2024-02-15T04:40:07;11.70;1.00
9925;DHT22;5001;51.674;7.868;2024-02-15T04:42:40;11.70;1.00
9925;DHT22;5001;51.674;7.868;2024-02-15T04:45:08;11.70;1.00
9925;DHT22;5001;51.674;7.868;2024-02-15T04:47:38;11.80;1.00
9925;DHT22;5001;51.674;7.868;2024-02-15T04:50:06;11.70;1.00
9925;DHT22;5001;51.674;7.868;2024-02-15T04:52:33;11.70;1.00
9925;DHT22;5001;51.674;7.868;2024-02-15T04:55:02;11.70;1.00
9925;DHT22;5001;51.674;7.868;2024-02-15T04:57:31;11.70;1.00
9925;DHT22;5001;51.674;7.868;2024-02-15T05:00:01;11.70;1.00
9925;DHT22;5001;51.674;7.868;2024-02-15T05:02:28;11.70;1.00
9925;DHT22;5001;51.674;7.868;2024-02-15T05:04:55;11.80;1.00
9925;DHT22;5001;51.674;7.868;2024-02-15T05:07:24;11.80;1.00
9925;DHT22;5001;51.674;7.868;2024-02-15T05:09:51;11.80;1.00
9925;DHT22;5001;51.674;7.868;2024-02-15T05:12:25;11.80;1.00
9925;DHT22;5001;51.674;7.868;2024-02-15T05:14:52;11.80;1.00
9925;DHT22;5001;51.674;7.868;2024-02-15T05:17:20;11.80;1.00
9925;DHT22;5001;51.674;7.868;2024-02-15T05:19:49;11.90;1.00
9925;DHT22;5001;51.674;7.868;2024-02-15T05:22:17;11.80;1.00
9925;DHT22;5001;51.674;7.868;2024-02-15T05:24:45;11.80;1.00
9925;DHT22;5001;51.674;7.868;2024-02-15T05:27:12;11.80;1.00
9925;DHT22;5001;51.674;7.868;2024-02-15T05:29:39;11.80;1.00
9925;DHT22;5001;51.674;7.868;2024-02-15T05:32:10;11.80;1.00
9925;DHT22;5001;51.674;7.868;2024-02-15T05:34:37;11.90;1.00
9925;DHT22;5001;51.674;7.868;2024-02-15T05:37:07;11.90;1.00
9925;DHT22;5001;51.674;7.868;2024-02-15T05:39:34;11.80;1.00
9925;DHT22;5001;51.674;7.868;2024-02-15T05:42:01;11.80;1.00
9925;DHT22;5001;51.674;7.868;2024-02-15T05:44:28;11.80;1.00
9925;DHT22;5001;51.674;7.868;2024-02-15T05:46:55;11.70;1.00
9925;DHT22;5001;51.674;7.868;2024-02-15T05:49:23;11.70;1.00
9925;DHT22;5001;51.674;7.868;2024-02-15T05:51:51;11.70;1.00
9925;DHT22;5001;51.674;7.868;2024-02-15T05:54:20;11.80;1.00
9925;DHT22;5001;51.674;7.868;2024-02-15T05:56:50;11.80;1.00
9925;DHT22;5001;51.674;7.868;2024-02-15T05:59:19;11.80;1.00
9925;DHT22;5001;51.674;7.868;2024-02-15T06:01:47;11.70;1.00
9925;DHT22;5001;51.674;7.868;2024-02-15T06:04:15;11.70;1.00
9925;DHT22;5001;51.674;7.868;2024-02-15T06:06:43;11.70;1.00
9925;DHT22;5001;51.674;7.868;2024-02-15T06:09:16;11.70;1.00
9925;DHT22;5001;51.674;7.868;2024-02-15T06:11:43;11.70;1.00
9925;DHT22;5001;51.674;7.868;2024-02-15T06:14:12;11.70;1.00
9925;DHT22;5001;51.674;7.868;2024-02-15T06:16:45;11.70;1.00
9925;DHT22;5001;51.674;7.868;2024-02-15T06:19:13;11.70;1.00
9925;DHT22;5001;51.674;7.868;2024-02-15T06:21:41;11.70;1.00
9925;DHT22;5001;51.674;7.868;2024-02-15T06:24:09;11.80;1.00
9925;DHT22;5001;51.674;7.868;2024-02-15T06:26:37;11.90;1.00
9925;DHT22;5001;51.674;7.868;2024-02-15T06:29:04;11.90;1.00
9925;DHT22;5001;51.674;7.868;2024-02-15T06:31:49;11.90;1.00
9925;DHT22;5001;51.674;7.868;2024-02-15T06:34:35;12.00;1.00
9925;DHT22;5001;51.674;7.868;2024-02-15T06:37:39;12.00;1.00
9925;DHT22;5001;51.674;7.868;2024-02-15T06:40:25;12.10;1.00
9925;DHT22;5001;51.674;7.868;2024-02-15T06:42:52;12.20;1.00
9925;DHT22;5001;51.674;7.868;2024-02-15T06:45:18;12.20;1.00
9925;DHT22;5001;51.674;7.868;2024-02-15T06:47:46;12.20;1.00
9925;DHT22;5001;51.674;7.868;2024-02-15T06:50:14;12.20;1.00
9925;DHT22;5001;51.674;7.868;2024-02-15T06:52:41;12.20;1.00
9925;DHT22;5001;51.674;7.868;2024-02-15T06:55:09;12.20;1.00
9925;DHT22;5001;51.674;7.868;2024-02-15T06:57:38;12.20;1.00
9925;DHT22;5001;51.674;7.868;2024-02-15T07:00:09;12.20;1.00
9925;DHT22;5001;51.674;7.868;2024-02-15T07:02:41;12.20;1.00
9925;DHT22;5001;51.674;7.868;2024-02-15T07:05:09;12.20;1.00
9925;DHT22;5001;51.674;7.868;2024-02-15T07:07:37;12.20;1.00
9925;DHT22;5001;51.674;7.868;2024-02-15T07:10:06;12.20;1.00
9925;DHT22;5001;51.674;7.868;2024-02-15T07:12:33;12.20;1.00
9925;DHT22;5001;51.674;7.868;2024-02-15T07:15:00;12.10;1.00
9925;DHT22;5001;51.674;7.868;2024-02-15T07:17:28;12.10;1.00
9925;DHT22;5001;51.674;7.868;2024-02-15T07:19:56;12.10;1.00
9925;DHT22;5001;51.674;7.868;2024-02-15T07:22:23;12.00;1.00
9925;DHT22;5001;51.674;7.868;2024-02-15T07:24:50;12.00;1.00
9925;DHT22;5001;51.674;7.868;2024-02-15T07:27:17;11.90;1.00
9925;DHT22;5001;51.674;7.868;2024-02-15T07:29:45;11.90;1.00
9925;DHT22;5001;51.674;7.868;2024-02-15T07:32:12;11.80;1.00
9925;DHT22;5001;51.674;7.868;2024-02-15T07:34:39;11.80;1.00
9925;DHT22;5001;51.674;7.868;2024-02-15T07:37:07;11.70;1.00
9925;DHT22;5001;51.674;7.868;2024-02-15T07:39:34;11.70;99.90
9925;DHT22;5001;51.674;7.868;2024-02-15T07:42:03;11.70;1.00
9925;DHT22;5001;51.674;7.868;2024-02-15T07:44:31;11.70;1.00
9925;DHT22;5001;51.674;7.868;2024-02-15T07:46:59;11.70;1.00
9925;DHT22;5001;51.674;7.868;2024-02-15T07:49:29;11.80;1.00
9925;DHT22;5001;51.674;7.868;2024-02-15T07:51:56;11.70;1.00
9925;DHT22;5001;51.674;7.868;2024-02-15T07:54:23;11.70;1.00
9925;DHT22;5001;51.674;7.868;2024-02-15T07:56:50;11.80;1.00
9925;DHT22;5001;51.674;7.868;2024-02-15T07:59:18;11.70;1.00
9925;DHT22;5001;51.674;7.868;2024-02-15T08:01:48;11.70;1.00
9925;DHT22;5001;51.674;7.868;2024-02-15T08:04:19;11.70;1.00
9925;DHT22;5001;51.674;7.868;2024-02-15T08:06:47;11.70;99.90
9925;DHT22;5001;51.674;7.868;2024-02-15T08:09:15;11.60;99.90
9925;DHT22;5001;51.674;7.868;2024-02-15T08:11:44;11.60;99.90
9925;DHT22;5001;51.674;7.868;2024-02-15T08:14:11;11.70;69.60
9925;DHT22;5001;51.674;7.868;2024-02-15T08:16:40;11.70;60.40
9925;DHT22;5001;51.674;7.868;2024-02-15T08:19:10;11.70;96.20
9925;DHT22;5001;51.674;7.868;2024-02-15T08:21:38;11.50;99.90
9925;DHT22;5001;51.674;7.868;2024-02-15T08:24:08;11.50;99.90
9925;DHT22;5001;51.674;7.868;2024-02-15T08:26:36;11.50;1.00
9925;DHT22;5001;51.674;7.868;2024-02-15T08:29:05;11.50;1.00
9925;DHT22;5001;51.674;7.868;2024-02-15T08:31:36;11.50;1.00
9925;DHT22;5001;51.674;7.868;2024-02-15T08:34:03;11.50;1.00
9925;DHT22;5001;51.674;7.868;2024-02-15T08:36:36;11.50;1.00
9925;DHT22;5001;51.674;7.868;2024-02-15T08:39:04;11.60;1.00
9925;DHT22;5001;51.674;7.868;2024-02-15T08:41:31;11.70;1.00
9925;DHT22;5001;51.674;7.868;2024-02-15T08:43:59;11.70;99.90
9925;DHT22;5001;51.674;7.868;2024-02-15T08:46:28;11.80;99.90
9925;DHT22;5001;51.674;7.868;2024-02-15T08:48:54;11.90;99.90
9925;DHT22;5001;51.674;7.868;2024-02-15T08:51:22;11.90;35.40
9925;DHT22;5001;51.674;7.868;2024-02-15T08:53:51;12.00;1.00
9925;DHT22;5001;51.674;7.868;2024-02-15T08:56:18;12.00;1.00
9925;DHT22;5001;51.674;7.868;2024-02-15T08:58:45;12.10;1.00
9925;DHT22;5001;51.674;7.868;2024-02-15T09:01:13;12.10;1.00
9925;DHT22;5001;51.674;7.868;2024-02-15T09:03:40;12.20;1.00
9925;DHT22;5001;51.674;7.868;2024-02-15T09:06:08;12.30;1.00
9925;DHT22;5001;51.674;7.868;2024-02-15T09:08:35;12.40;1.00
9925;DHT22;5001;51.674;7.868;2024-02-15T09:11:02;12.30;1.00
9925;DHT22;5001;51.674;7.868;2024-02-15T09:13:32;12.40;1.00
9925;DHT22;5001;51.674;7.868;2024-02-15T09:16:01;12.40;1.00
9925;DHT22;5001;51.674;7.868;2024-02-15T09:18:28;12.40;1.00
9925;DHT22;5001;51.674;7.868;2024-02-15T09:20:55;12.30;1.00
9925;DHT22;5001;51.674;7.868;2024-02-15T09:23:23;12.20;1.00
9925;DHT22;5001;51.674;7.868;2024-02-15T09:25:50;12.30;1.00
9925;DHT22;5001;51.674;7.868;2024-02-15T09:28:20;12.20;1.00
9925;DHT22;5001;51.674;7.868;2024-02-15T09:30:49;12.20;1.00
9925;DHT22;5001;51.674;7.868;2024-02-15T09:33:19;12.20;1.00
9925;DHT22;5001;51.674;7.868;2024-02-15T09:35:47;12.20;1.00
9925;DHT22;5001;51.674;7.868;2024-02-15T09:38:15;12.30;1.00
9925;DHT22;5001;51.674;7.868;2024-02-15T09:40:44;12.40;1.00
9925;DHT22;5001;51.674;7.868;2024-02-15T09:43:11;12.50;1.00
9925;DHT22;5001;51.674;7.868;2024-02-15T09:45:42;12.60;1.00
9925;DHT22;5001;51.674;7.868;2024-02-15T09:48:15;12.70;1.00
9925;DHT22;5001;51.674;7.868;2024-02-15T09:50:45;12.80;1.00
9925;DHT22;5001;51.674;7.868;2024-02-15T09:53:15;13.00;1.00
9925;DHT22;5001;51.674;7.868;2024-02-15T09:55:42;12.90;1.00
9925;DHT22;5001;51.674;7.868;2024-02-15T09:58:10;12.90;1.00
9925;DHT22;5001;51.674;7.868;2024-02-15T10:00:39;12.70;1.00
9925;DHT22;5001;51.674;7.868;2024-02-15T10:03:06;12.70;1.00
9925;DHT22;5001;51.674;7.868;2024-02-15T10:05:34;12.60;1.00
9925;DHT22;5001;51.674;7.868;2024-02-15T10:08:02;12.50;1.00
9925;DHT22;5001;51.674;7.868;2024-02-15T10:10:30;12.40;23.20
9925;DHT22;5001;51.674;7.868;2024-02-15T10:12:57;12.20;99.90
9925;DHT22;5001;51.674;7.868;2024-02-15T10:15:31;12.10;1.00
9925;DHT22;5001;51.674;7.868;2024-02-15T10:18:07;12.10;1.00
9925;DHT22;5001;51.674;7.868;2024-02-15T10:20:41;12.00;1.00
9925;DHT22;5001;51.674;7.868;2024-02-15T10:23:16;12.00;1.00
9925;DHT22;5001;51.674;7.868;2024-02-15T10:25:45;12.00;1.00
9925;DHT22;5001;51.674;7.868;2024-02-15T10:28:20;12.10;1.00
9925;DHT22;5001;51.674;7.868;2024-02-15T10:30:50;12.10;1.00
9925;DHT22;5001;51.674;7.868;2024-02-15T10:33:26;12.10;1.00
9925;DHT22;5001;51.674;7.868;2024-02-15T10:36:10;12.20;99.90
9925;DHT22;5001;51.674;7.868;2024-02-15T10:38:40;12.30;99.90
9925;DHT22;5001;51.674;7.868;2024-02-15T10:41:08;12.40;99.90
9925;DHT22;5001;51.674;7.868;2024-02-15T10:43:36;12.30;99.90
9925;DHT22;5001;51.674;7.868;2024-02-15T10:46:08;12.40;99.90
9925;DHT22;5001;51.674;7.868;2024-02-15T10:48:37;12.40;99.90
9925;DHT22;5001;51.674;7.868;2024-02-15T10:51:10;12.50;99.90
9925;DHT22;5001;51.674;7.868;2024-02-15T10:53:44;12.50;99.90
9925;DHT22;5001;51.674;7.868;2024-02-15T10:56:27;12.60;99.90
9925;DHT22;5001;51.674;7.868;2024-02-15T11:01:32;12.60;99.90
9925;DHT22;5001;51.674;7.868;2024-02-15T11:04:00;12.70;99.90
9925;DHT22;5001;51.674;7.868;2024-02-15T11:06:35;12.70;99.90
9925;DHT22;5001;51.674;7.868;2024-02-15T11:09:05;12.70;99.90
9925;DHT22;5001;51.674;7.868;2024-02-15T11:11:34;12.70;99.90
9925;DHT22;5001;51.674;7.868;2024-02-15T11:14:45;12.80;99.90
9925;DHT22;5001;51.674;7.868;2024-02-15T11:20:32;13.00;99.90
9925;DHT22;5001;51.674;7.868;2024-02-15T11:23:00;13.00;99.90
9925;DHT22;5001;51.674;7.868;2024-02-15T11:25:37;13.00;99.90
9925;DHT22;5001;51.674;7.868;2024-02-15T11:30:49;13.00;98.30
9925;DHT22;5001;51.674;7.868;2024-02-15T11:33:31;13.00;99.90
9925;DHT22;5001;51.674;7.868;2024-02-15T11:36:31;13.10;99.90
9925;DHT22;5001;51.674;7.868;2024-02-15T11:38:59;13.30;92.50
9925;DHT22;5001;51.674;7.868;2024-02-15T11:41:29;13.40;79.30
9925;DHT22;5001;51.674;7.868;2024-02-15T11:43:56;13.50;15.60
9925;DHT22;5001;51.674;7.868;2024-02-15T11:46:25;13.60;1.00
9925;DHT22;5001;51.674;7.868;2024-02-15T11:48:54;13.60;1.00
9925;DHT22;5001;51.674;7.868;2024-02-15T11:54:20;13.60;1.00
9925;DHT22;5001;51.674;7.868;2024-02-15T11:56:51;13.60;1.00
9925;DHT22;5001;51.674;7.868;2024-02-15T11:59:39;13.60;1.00
9925;DHT22;5001;51.674;7.868;2024-02-15T12:02:20;13.70;1.00
9925;DHT22;5001;51.674;7.868;2024-02-15T12:05:06;13.80;1.00
9925;DHT22;5001;51.674;7.868;2024-02-15T12:07:53;13.80;1.00
9925;DHT22;5001;51.674;7.868;2024-02-15T12:10:38;13.80;1.00
9925;DHT22;5001;51.674;7.868;2024-02-15T12:13:24;14.00;1.00
9925;DHT22;5001;51.674;7.868;2024-02-15T12:16:10;14.00;1.00
9925;DHT22;5001;51.674;7.868;2024-02-15T12:19:00;13.90;1.00
9925;DHT22;5001;51.674;7.868;2024-02-15T12:21:28;13.80;1.00
9925;DHT22;5001;51.674;7.868;2024-02-15T12:23:55;13.90;1.00
9925;DHT22;5001;51.674;7.868;2024-02-15T12:26:22;13.90;1.00
9925;DHT22;5001;51.674;7.868;2024-02-15T12:28:53;13.90;1.00
9925;DHT22;5001;51.674;7.868;2024-02-15T12:31:24;14.00;1.00
9925;DHT22;5001;51.674;7.868;2024-02-15T12:34:04;14.10;1.00
9925;DHT22;5001;51.674;7.868;2024-02-15T12:36:35;14.10;1.00
9925;DHT22;5001;51.674;7.868;2024-02-15T12:39:07;14.10;1.00
9925;DHT22;5001;51.674;7.868;2024-02-15T12:41:40;14.20;1.00
9925;DHT22;5001;51.674;7.868;2024-02-15T12:44:07;14.30;1.00
9925;DHT22;5001;51.674;7.868;2024-02-15T12:46:34;14.30;1.00
9925;DHT22;5001;51.674;7.868;2024-02-15T12:49:17;14.40;1.00
9925;DHT22;5001;51.674;7.868;2024-02-15T12:52:32;14.40;1.00
9925;DHT22;5001;51.674;7.868;2024-02-15T12:54:41;14.50;1.00
9925;DHT22;5001;51.674;7.868;2024-02-15T12:57:09;14.50;1.00
9925;DHT22;5001;51.674;7.868;2024-02-15T12:59:41;14.50;1.00
9925;DHT22;5001;51.674;7.868;2024-02-15T13:02:09;14.60;1.00
9925;DHT22;5001;51.674;7.868;2024-02-15T13:04:36;14.60;1.00
9925;DHT22;5001;51.674;7.868;2024-02-15T13:07:05;14.70;1.00
9925;DHT22;5001;51.674;7.868;2024-02-15T13:09:36;14.80;1.00
9925;DHT22;5001;51.674;7.868;2024-02-15T13:12:03;14.90;1.00
9925;DHT22;5001;51.674;7.868;2024-02-15T13:14:31;14.80;1.00
9925;DHT22;5001;51.674;7.868;2024-02-15T13:16:57;14.90;1.00
9925;DHT22;5001;51.674;7.868;2024-02-15T13:19:25;14.90;1.00
9925;DHT22;5001;51.674;7.868;2024-02-15T13:21:53;14.90;1.00
9925;DHT22;5001;51.674;7.868;2024-02-15T13:24:24;15.00;1.00
9925;DHT22;5001;51.674;7.868;2024-02-15T13:26:53;15.00;1.00
9925;DHT22;5001;51.674;7.868;2024-02-15T13:29:24;15.10;1.00
9925;DHT22;5001;51.674;7.868;2024-02-15T13:31:51;15.30;1.00
9925;DHT22;5001;51.674;7.868;2024-02-15T13:34:18;15.40;1.00
9925;DHT22;5001;51.674;7.868;2024-02-15T13:36:46;15.40;1.00
9925;DHT22;5001;51.674;7.868;2024-02-15T13:39:13;15.40;1.00
9925;DHT22;5001;51.674;7.868;2024-02-15T13:41:40;15.60;1.00
9925;DHT22;5001;51.674;7.868;2024-02-15T13:44:07;15.60;1.00
9925;DHT22;5001;51.674;7.868;2024-02-15T13:46:34;15.50;1.00
9925;DHT22;5001;51.674;7.868;2024-02-15T13:49:01;15.40;99.90
9925;DHT22;5001;51.674;7.868;2024-02-15T13:51:28;15.50;99.90
9925;DHT22;5001;51.674;7.868;2024-02-15T13:53:55;15.50;99.90
9925;DHT22;5001;51.674;7.868;2024-02-15T13:56:23;15.40;99.90
9925;DHT22;5001;51.674;7.868;2024-02-15T13:58:50;15.50;99.90
9925;DHT22;5001;51.674;7.868;2024-02-15T14:01:16;15.40;99.90
9925;DHT22;5001;51.674;7.868;2024-02-15T14:03:45;15.40;99.90
9925;DHT22;5001;51.674;7.868;2024-02-15T14:06:12;15.40;99.90
9925;DHT22;5001;51.674;7.868;2024-02-15T14:08:42;15.30;99.90
9925;DHT22;5001;51.674;7.868;2024-02-15T14:11:08;15.30;99.90
9925;DHT22;5001;51.674;7.868;2024-02-15T14:13:36;15.30;99.90
9925;DHT22;5001;51.674;7.868;2024-02-15T14:16:03;15.30;99.90
9925;DHT22;5001;51.674;7.868;2024-02-15T14:18:31;15.20;99.90
9925;DHT22;5001;51.674;7.868;2024-02-15T14:20:58;15.20;99.90
9925;DHT22;5001;51.674;7.868;2024-02-15T14:23:28;15.20;99.90
9925;DHT22;5001;51.674;7.868;2024-02-15T14:25:55;15.20;99.90
9925;DHT22;5001;51.674;7.868;2024-02-15T14:28:27;15.20;99.90
9925;DHT22;5001;51.674;7.868;2024-02-15T14:30:54;15.20;99.90
9925;DHT22;5001;51.674;7.868;2024-02-15T14:33:39;15.20;99.90
9925;DHT22;5001;51.674;7.868;2024-02-15T14:36:06;15.10;99.90
9925;DHT22;5001;51.674;7.868;2024-02-15T14:38:33;15.20;99.90
9925;DHT22;5001;51.674;7.868;2024-02-15T14:41:02;15.10;99.90
9925;DHT22;5001;51.674;7.868;2024-02-15T14:43:35;15.10;99.90
9925;DHT22;5001;51.674;7.868;2024-02-15T14:46:02;15.20;99.90
9925;DHT22;5001;51.674;7.868;2024-02-15T14:48:32;15.10;99.90
9925;DHT22;5001;51.674;7.868;2024-02-15T14:51:00;15.10;99.90
9925;DHT22;5001;51.674;7.868;2024-02-15T14:53:27;15.10;99.90
9925;DHT22;5001;51.674;7.868;2024-02-15T14:55:54;15.10;99.90
9925;DHT22;5001;51.674;7.868;2024-02-15T14:58:24;15.10;99.90
9925;DHT22;5001;51.674;7.868;2024-02-15T15:00:51;15.10;99.90
9925;DHT22;5001;51.674;7.868;2024-02-15T15:03:22;15.10;99.90
9925;DHT22;5001;51.674;7.868;2024-02-15T15:05:53;15.00;99.90
9925;DHT22;5001;51.674;7.868;2024-02-15T15:08:39;15.00;99.90
9925;DHT22;5001;51.674;7.868;2024-02-15T15:11:24;15.10;99.90
9925;DHT22;5001;51.674;7.868;2024-02-15T15:14:10;15.00;99.90
9925;DHT22;5001;51.674;7.868;2024-02-15T15:16:37;15.00;99.90
9925;DHT22;5001;51.674;7.868;2024-02-15T15:19:04;15.00;99.90
9925;DHT22;5001;51.674;7.868;2024-02-15T15:21:32;14.90;99.90
9925;DHT22;5001;51.674;7.868;2024-02-15T15:23:59;15.00;99.90
9925;DHT22;5001;51.674;7.868;2024-02-15T15:26:26;14.80;99.90
9925;DHT22;5001;51.674;7.868;2024-02-15T15:28:53;14.80;99.90
9925;DHT22;5001;51.674;7.868;2024-02-15T15:31:24;14.80;99.90
9925;DHT22;5001;51.674;7.868;2024-02-15T15:33:52;14.70;99.90
9925;DHT22;5001;51.674;7.868;2024-02-15T15:36:22;14.60;99.90
9925;DHT22;5001;51.674;7.868;2024-02-15T15:38:49;14.50;99.90
9925;DHT22;5001;51.674;7.868;2024-02-15T15:41:17;14.50;99.90
9925;DHT22;5001;51.674;7.868;2024-02-15T15:43:44;14.60;99.90
9925;DHT22;5001;51.674;7.868;2024-02-15T15:46:15;14.50;99.90
9925;DHT22;5001;51.674;7.868;2024-02-15T15:48:42;14.50;99.90
9925;DHT22;5001;51.674;7.868;2024-02-15T15:51:13;14.50;99.90
9925;DHT22;5001;51.674;7.868;2024-02-15T15:53:42;14.50;99.90
9925;DHT22;5001;51.674;7.868;2024-02-15T15:56:09;14.50;99.90
9925;DHT22;5001;51.674;7.868;2024-02-15T15:58:36;14.60;99.90
9925;DHT22;5001;51.674;7.868;2024-02-15T16:01:03;14.50;99.90
9925;DHT22;5001;51.674;7.868;2024-02-15T16:03:31;14.40;99.90
9925;DHT22;5001;51.674;7.868;2024-02-15T16:05:59;14.50;99.90
9925;DHT22;5001;51.674;7.868;2024-02-15T16:08:26;14.50;99.90
9925;DHT22;5001;51.674;7.868;2024-02-15T16:10:56;14.50;99.90
9925;DHT22;5001;51.674;7.868;2024-02-15T16:13:24;14.50;99.90
9925;DHT22;5001;51.674;7.868;2024-02-15T16:15:53;14.40;99.90
9925;DHT22;5001;51.674;7.868;2024-02-15T16:18:21;14.50;99.90
9925;DHT22;5001;51.674;7.868;2024-02-15T16:20:50;14.40;99.90
9925;DHT22;5001;51.674;7.868;2024-02-15T16:23:21;14.40;99.90
9925;DHT22;5001;51.674;7.868;2024-02-15T16:25:49;14.30;99.90
9925;DHT22;5001;51.674;7.868;2024-02-15T16:28:17;14.20;99.90
9925;DHT22;5001;51.674;7.868;2024-02-15T16:30:44;14.30;99.90
9925;DHT22;5001;51.674;7.868;2024-02-15T16:33:11;14.20;99.90
9925;DHT22;5001;51.674;7.868;2024-02-15T16:35:38;14.20;99.90
9925;DHT22;5001;51.674;7.868;2024-02-15T16:38:05;14.10;99.90
9925;DHT22;5001;51.674;7.868;2024-02-15T16:40:32;14.00;99.90